createdAt,value
2023-10-20T00:00:21.071Z,14.7
2023-10-20T00:30:22.058Z,14.4
2023-10-20T01:00:29.954Z,14.3
2023-10-20T01:30:08.929Z,14.2
2023-10-20T02:00:15.677Z,14
2023-10-20T02:30:17.235Z,14.1
2023-10-20T03:00:01.504Z,14.2
2023-10-20T03:30:02.652Z,13.5
2023-10-20T04:00:04.617Z,13.7
2023-10-20T04:30:04.839Z,13.9
2023-10-20T05:00:26.242Z,13.9
2023-10-20T05:30:27.773Z,13.9
2023-10-20T06:00:13.618Z,13.8
2023-10-20T06:30:05.079Z,13.9
2023-10-20T07:00:13.990Z,14.1
2023-10-20T07:30:14.539Z,14.4
2023-10-20T08:00:16.074Z,14.1
2023-10-20T08:30:04.261Z,14.5
2023-10-20T09:00:19.628Z,14.7
2023-10-20T09:30:04.910Z,15.1
2023-10-20T10:00:05.312Z,14.7
2023-10-20T10:30:06.412Z,14.8
2023-10-20T11:00:13.234Z,14.6
2023-10-20T11:30:22.270Z,14.8
2023-10-20T12:00:23.183Z,14.5
2023-10-20T12:30:01.194Z,14.5
2023-10-20T13:30:27.388Z,13.8
2023-10-20T14:00:12.497Z,13.2
2023-10-20T14:30:12.833Z,13.5
2023-10-20T15:00:14.142Z,13.3
2023-10-20T15:30:29.365Z,13.5
2023-10-20T16:00:14.784Z,13.7
2023-10-20T16:30:00.913Z,13.8
2023-10-20T17:00:16.268Z,13.3
2023-10-20T18:00:12.734Z,12.4
2023-10-20T18:30:27.697Z,12.4
2023-10-20T19:00:28.029Z,12.5
2023-10-20T19:30:29.284Z,12.4
2023-10-20T20:00:14.952Z,12.6
2023-10-20T20:30:15.201Z,12.6
2023-10-20T21:00:00.619Z,12.6
2023-10-20T21:30:01.771Z,12.5
2023-10-20T22:00:10.514Z,12.1
2023-10-20T22:30:05.534Z,12.5
2023-10-20T23:00:21.677Z,12.2
2023-10-20T23:30:29.086Z,12.2
